Time;durP1;ratioP1;P1;durP2;ratioP2;P2;SDS_P1;SDS_P2;PMS_P1;PMS_P2;Temp;Humidity;BMP_temperature;BMP_pressure;BME280_temperature;BME280_humidity;BME280_pressure;Samples;Min_cycle;Max_cycle;Signal;HPM_P1;HPM_P2
2023/05/12 00:01:41;;;;;;;3.85;2.55;;;;;;;10.03;100.00;98583.25;5015878;28;20164;-65
2023/05/12 00:04:07;;;;;;;6.35;2.60;;;;;;;9.97;100.00;98579.50;5034225;28;20033;-65
2023/05/12 00:06:32;;;;;;;2.60;2.17;;;;;;;9.94;100.00;98579.94;5032966;28;20499;-65
2023/05/12 00:08:57;;;;;;;4.88;2.72;;;;;;;9.98;100.00;98574.94;5017604;28;20461;-65
2023/05/12 00:11:23;;;;;;;2.90;2.22;;;;;;;9.97;100.00;98581.38;5018362;28;20031;-65
2023/05/12 00:13:48;;;;;;;6.50;2.60;;;;;;;9.94;100.00;98584.50;5017417;28;20175;-65
2023/05/12 00:16:16;;;;;;;6.30;2.42;;;;;;;9.96;100.00;98579.75;5027447;28;20032;-65
2023/05/12 00:18:41;;;;;;;4.68;2.63;;;;;;;9.86;100.00;98572.84;5008294;28;20033;-65
2023/05/12 00:21:07;;;;;;;4.68;3.13;;;;;;;9.79;100.00;98565.75;5031935;28;20112;-65
2023/05/12 00:23:33;;;;;;;7.03;3.05;;;;;;;9.77;100.00;98575.94;5023520;28;20128;-65
2023/05/12 00:25:59;;;;;;;4.65;3.13;;;;;;;9.72;100.00;98573.00;5018924;28;20103;-64
2023/05/12 00:28:24;;;;;;;4.00;3.13;;;;;;;9.61;100.00;98560.91;5009990;28;20473;-65
2023/05/12 00:30:50;;;;;;;6.43;3.45;;;;;;;9.65;100.00;98573.81;5032085;28;20496;-65
2023/05/12 00:33:16;;;;;;;5.70;3.47;;;;;;;9.60;100.00;98568.19;5018268;28;20025;-65
2023/05/12 00:35:44;;;;;;;5.13;3.63;;;;;;;9.59;100.00;98565.72;5028992;28;20021;-65
2023/05/12 00:38:09;;;;;;;6.73;3.23;;;;;;;9.67;100.00;98562.84;5024395;28;20550;-64
2023/05/12 00:40:35;;;;;;;3.95;2.97;;;;;;;9.60;100.00;98564.66;5014648;28;20056;-64
2023/05/12 00:43:00;;;;;;;7.30;3.03;;;;;;;9.57;100.00;98567.78;5021813;28;20115;-65
2023/05/12 00:45:28;;;;;;;3.92;2.95;;;;;;;9.52;100.00;98560.28;5020979;28;20076;-64
2023/05/12 00:47:53;;;;;;;7.32;3.53;;;;;;;9.50;100.00;98564.22;5010125;28;20037;-65
2023/05/12 00:50:19;;;;;;;5.03;3.08;;;;;;;9.48;100.00;98563.59;5026928;28;20037;-64
2023/05/12 00:52:45;;;;;;;9.30;3.70;;;;;;;9.46;100.00;98565.63;5023191;28;20028;-64
2023/05/12 00:55:12;;;;;;;4.57;3.13;;;;;;;9.49;100.00;98565.25;5020479;28;20025;-64
2023/05/12 00:57:40;;;;;;;7.57;3.20;;;;;;;9.43;100.00;98570.44;5025346;28;20021;-63
2023/05/12 01:00:06;;;;;;;3.88;3.20;;;;;;;9.46;100.00;98573.75;5021249;28;20092;-64
2023/05/12 01:02:31;;;;;;;5.13;3.28;;;;;;;9.44;100.00;98568.56;5013264;28;20033;-58
2023/05/12 01:04:57;;;;;;;6.50;3.55;;;;;;;9.44;100.00;98569.38;5019291;28;20026;-59
2023/05/12 01:07:24;;;;;;;4.70;3.30;;;;;;;9.48;100.00;98571.69;5016528;28;20385;-58
2023/05/12 01:09:55;;;;;;;6.18;3.17;;;;;;;9.49;100.00;98570.66;5008335;28;20033;-58
2023/05/12 01:12:22;;;;;;;4.15;2.90;;;;;;;9.49;100.00;98571.50;5023183;28;20018;-58
2023/05/12 01:14:49;;;;;;;4.72;3.30;;;;;;;9.47;100.00;98570.03;5016996;28;20021;-58
2023/05/12 01:17:20;;;;;;;5.35;3.42;;;;;;;9.44;100.00;98564.00;5016519;28;20030;-59
2023/05/12 01:19:55;;;;;;;7.85;3.20;;;;;;;9.40;100.00;98568.13;5039292;28;20041;-58
2023/05/12 01:22:21;;;;;;;4.45;3.33;;;;;;;9.38;100.00;98569.38;5023004;28;20029;-58
2023/05/12 01:24:53;;;;;;;6.03;3.25;;;;;;;9.32;100.00;98564.75;5014856;28;20079;-58
2023/05/12 01:27:20;;;;;;;7.88;3.03;;;;;;;9.30;100.00;98556.03;5029830;28;20473;-60
2023/05/12 01:29:47;;;;;;;5.45;3.17;;;;;;;9.30;100.00;98562.28;5015193;28;20045;-58
2023/05/12 01:32:13;;;;;;;5.10;2.92;;;;;;;9.31;100.00;98574.75;5022427;28;20120;-58
2023/05/12 01:34:41;;;;;;;4.22;3.15;;;;;;;9.35;100.00;98558.97;5015777;28;20026;-58
2023/05/12 01:37:06;;;;;;;4.90;3.47;;;;;;;9.35;100.00;98565.22;5021116;28;20036;-58
2023/05/12 01:39:32;;;;;;;5.50;3.40;;;;;;;9.32;100.00;98560.19;5018831;28;20025;-58
2023/05/12 01:41:57;;;;;;;6.63;3.75;;;;;;;9.30;100.00;98562.28;5012881;28;20021;-58
2023/05/12 01:44:22;;;;;;;6.40;4.78;;;;;;;9.31;100.00;98565.81;5025221;28;20022;-58
2023/05/12 01:46:48;;;;;;;7.40;4.07;;;;;;;9.36;100.00;98568.75;5020752;28;20024;-58
2023/05/12 01:49:13;;;;;;;8.63;5.15;;;;;;;9.40;100.00;98567.28;5013793;28;20040;-59
2023/05/12 01:51:39;;;;;;;6.90;4.75;;;;;;;9.42;100.00;98574.16;5020722;28;20120;-58
2023/05/12 01:54:04;;;;;;;6.25;3.88;;;;;;;9.42;100.00;98578.72;5013210;28;20108;-59
2023/05/12 01:56:30;;;;;;;5.03;3.40;;;;;;;9.38;100.00;98574.78;5020449;28;20025;-58
2023/05/12 01:58:56;;;;;;;5.20;3.70;;;;;;;9.35;100.00;98578.72;5009212;28;20061;-58
2023/05/12 02:01:24;;;;;;;6.25;4.15;;;;;;;9.34;100.00;98582.44;5025384;28;20050;-59
2023/05/12 02:03:50;;;;;;;4.97;3.63;;;;;;;9.29;100.00;98573.28;5028760;28;20044;-59
2023/05/12 02:06:15;;;;;;;4.97;3.35;;;;;;;9.31;100.00;98573.91;5015101;28;20468;-59
2023/05/12 02:08:41;;;;;;;5.25;3.58;;;;;;;9.27;100.00;98578.03;5014204;28;20047;-59
2023/05/12 02:11:07;;;;;;;4.00;3.10;;;;;;;9.26;100.00;98571.81;5043300;28;20465;-59
2023/05/12 02:13:33;;;;;;;4.82;3.65;;;;;;;9.18;100.00;98582.78;5024348;28;20029;-59
2023/05/12 02:15:59;;;;;;;7.05;3.33;;;;;;;9.14;100.00;98573.41;4999235;28;20060;-58
2023/05/12 02:18:24;;;;;;;4.30;3.15;;;;;;;9.11;100.00;98571.94;5013864;28;20057;-59
2023/05/12 02:20:49;;;;;;;5.80;3.58;;;;;;;9.11;100.00;98568.41;5035628;28;20033;-59
2023/05/12 02:23:15;;;;;;;4.80;3.28;;;;;;;9.11;100.00;98571.94;5027419;28;20465;-59
2023/05/12 02:25:40;;;;;;;5.03;3.53;;;;;;;9.09;100.00;98565.06;5025106;28;20036;-59
2023/05/12 02:28:09;;;;;;;6.68;3.55;;;;;;;9.09;100.00;98565.06;5032779;28;20025;-60
2023/05/12 02:30:35;;;;;;;5.03;3.42;;;;;;;9.06;100.00;98560.06;5011945;28;20538;-59
2023/05/12 02:33:00;;;;;;;4.30;3.28;;;;;;;9.02;100.00;98556.13;5018036;28;20030;-58
2023/05/12 02:35:26;;;;;;;5.05;3.22;;;;;;;8.94;100.00;98560.63;5026941;28;20057;-58
2023/05/12 02:37:51;;;;;;;5.72;3.42;;;;;;;8.87;100.00;98561.63;5014128;28;20476;-59
2023/05/12 02:40:16;;;;;;;7.00;4.00;;;;;;;8.86;100.00;98560.81;5023425;28;20048;-58
2023/05/12 02:42:42;;;;;;;4.88;3.20;;;;;;;8.87;100.00;98564.31;5017938;28;20117;-59
2023/05/12 02:45:09;;;;;;;9.38;3.80;;;;;;;8.84;100.00;98562.03;5011380;28;20026;-58
2023/05/12 02:47:35;;;;;;;5.88;3.50;;;;;;;8.90;100.00;98566.63;5022887;28;20403;-59
2023/05/12 02:50:00;;;;;;;10.27;3.80;;;;;;;8.90;100.00;98563.94;5020112;28;20037;-59
2023/05/12 02:52:26;;;;;;;5.72;3.20;;;;;;;9.00;100.00;98567.94;5022457;28;20047;-58
2023/05/12 02:54:51;;;;;;;5.50;3.25;;;;;;;8.97;100.00;98557.53;5015399;28;20477;-58
2023/05/12 02:57:16;;;;;;;8.43;4.78;;;;;;;8.97;100.00;98568.34;5040146;28;20052;-58
2023/05/12 02:59:41;;;;;;;6.25;4.30;;;;;;;8.99;100.00;98566.28;5026336;28;20029;-58
2023/05/12 03:02:07;;;;;;;9.60;4.95;;;;;;;9.04;100.00;98563.00;5018012;28;20041;-62
2023/05/12 03:04:32;;;;;;;7.90;5.00;;;;;;;9.08;100.00;98568.81;5017140;28;20416;-59
2023/05/12 03:06:58;;;;;;;14.68;7.00;;;;;;;9.04;100.00;98559.44;5021196;28;20465;-62
2023/05/12 03:09:23;;;;;;;15.40;7.70;;;;;;;9.08;100.00;98566.09;5013676;28;20033;-58
2023/05/12 03:11:49;;;;;;;12.48;7.45;;;;;;;9.10;100.00;98564.06;5029168;28;20052;-59
2023/05/12 03:14:14;;;;;;;13.02;7.75;;;;;;;9.08;100.00;98564.25;5023665;28;20025;-59
2023/05/12 03:16:39;;;;;;;11.75;7.40;;;;;;;9.05;100.00;98551.16;5032706;28;20032;-59
2023/05/12 03:19:05;;;;;;;13.23;6.82;;;;;;;9.06;100.00;98565.47;5018802;28;20075;-58
2023/05/12 03:21:30;;;;;;;13.98;6.85;;;;;;;9.03;100.00;98555.91;5045653;28;20056;-65
2023/05/12 03:23:56;;;;;;;12.23;6.60;;;;;;;9.00;100.00;98564.41;5028801;28;20392;-59
2023/05/12 03:26:21;;;;;;;10.95;6.55;;;;;;;8.96;100.00;98565.81;5028485;28;20104;-57
2023/05/12 03:28:47;;;;;;;13.18;7.00;;;;;;;8.95;100.00;98570.38;5026497;28;20029;-58
2023/05/12 03:31:12;;;;;;;11.02;6.75;;;;;;;9.02;100.00;98567.75;5016034;28;20028;-58
2023/05/12 03:33:38;;;;;;;11.35;6.40;;;;;;;9.01;100.00;98566.06;5024127;28;20021;-58
2023/05/12 03:36:03;;;;;;;10.88;5.90;;;;;;;9.00;100.00;98567.94;5020862;28;20108;-58
2023/05/12 03:38:29;;;;;;;10.15;5.40;;;;;;;8.98;100.00;98564.59;5022706;28;20531;-58
2023/05/12 03:41:04;;;;;;;11.15;5.90;;;;;;;9.02;100.00;98569.63;5016168;28;20025;-58
2023/05/12 03:43:30;;;;;;;10.88;6.43;;;;;;;9.03;100.00;98566.69;5028901;28;20091;-59
2023/05/12 03:45:55;;;;;;;9.88;5.25;;;;;;;9.05;100.00;98571.91;5019006;28;20025;-59
2023/05/12 03:48:21;;;;;;;8.75;5.38;;;;;;;9.08;100.00;98566.09;5020016;28;20033;-58
2023/05/12 03:50:46;;;;;;;9.02;5.13;;;;;;;9.11;100.00;98571.09;5021042;28;20457;-58
2023/05/12 03:53:12;;;;;;;11.60;5.85;;;;;;;9.13;100.00;98563.66;5014301;28;20076;-58
2023/05/12 03:55:37;;;;;;;10.82;5.70;;;;;;;9.16;100.00;98565.94;5037865;28;20055;-58
2023/05/12 03:58:03;;;;;;;10.82;4.97;;;;;;;9.19;100.00;98558.25;5018142;28;20034;-58
2023/05/12 04:00:28;;;;;;;9.60;5.50;;;;;;;9.30;100.00;98562.28;5014764;28;20079;-58
2023/05/12 04:02:53;;;;;;;10.88;5.45;;;;;;;9.31;100.00;98561.25;5028310;28;21065;-57
2023/05/12 04:05:19;;;;;;;9.57;5.82;;;;;;;9.28;100.00;98567.03;5031169;28;20052;-57
2023/05/12 04:07:44;;;;;;;11.90;5.85;;;;;;;9.27;100.00;98557.25;5030164;28;20069;-57
2023/05/12 04:10:10;;;;;;;10.52;5.35;;;;;;;9.28;100.00;98558.94;5017890;28;20079;-57
2023/05/12 04:12:36;;;;;;;8.55;5.40;;;;;;;9.34;100.00;98552.72;5020718;28;20037;-57
2023/05/12 04:15:02;;;;;;;12.30;5.88;;;;;;;9.38;100.00;98554.00;5014882;28;20024;-57
2023/05/12 04:17:27;;;;;;;11.30;5.65;;;;;;;9.42;100.00;98557.94;5027398;28;20073;-57
2023/05/12 04:19:53;;;;;;;14.27;5.45;;;;;;;9.45;100.00;98559.41;5013451;28;20108;-57
2023/05/12 04:22:25;;;;;;;8.25;5.63;;;;;;;9.47;100.00;98556.53;5027760;28;20108;-57
2023/05/12 04:24:51;;;;;;;8.20;5.22;;;;;;;9.54;100.00;98557.38;5026655;28;20126;-57
2023/05/12 04:27:17;;;;;;;10.10;5.00;;;;;;;9.60;100.00;98546.59;5018527;28;20022;-57
2023/05/12 04:29:42;;;;;;;7.07;4.72;;;;;;;9.68;100.00;98544.75;5008356;28;20484;-57
2023/05/12 04:32:10;;;;;;;11.35;4.88;;;;;;;9.75;100.00;98553.72;5038583;28;20037;-57
2023/05/12 04:34:55;;;;;;;6.72;4.65;;;;;;;9.76;100.00;98550.78;5044459;28;20028;-57
2023/05/12 04:37:21;;;;;;;7.03;4.97;;;;;;;9.79;100.00;98558.47;5018099;28;20033;-58
2023/05/12 04:39:47;;;;;;;8.30;5.15;;;;;;;9.84;100.00;98557.88;5015848;28;20047;-58
2023/05/12 04:42:12;;;;;;;11.85;5.32;;;;;;;9.91;100.00;98552.50;5023135;28;20025;-57
2023/05/12 04:44:38;;;;;;;10.38;4.70;;;;;;;9.93;100.00;98553.94;5020612;28;20080;-57
2023/05/12 04:47:14;;;;;;;10.00;5.03;;;;;;;9.98;100.00;98558.72;5021166;28;20074;-57
2023/05/12 04:49:39;;;;;;;7.68;5.00;;;;;;;10.07;100.00;98558.31;5021549;28;20021;-57
2023/05/12 04:52:15;;;;;;;8.48;5.78;;;;;;;10.08;100.00;98562.69;5018339;28;20374;-58
2023/05/12 04:54:50;;;;;;;9.07;5.20;;;;;;;10.09;100.00;98566.25;5017432;28;20091;-57
2023/05/12 04:57:15;;;;;;;7.60;5.25;;;;;;;10.08;100.00;98561.84;5015096;28;20063;-57
2023/05/12 04:59:44;;;;;;;7.38;5.13;;;;;;;10.18;100.00;98559.59;5016702;28;20469;-57
2023/05/12 05:02:10;;;;;;;9.40;5.60;;;;;;;10.15;100.00;98556.47;5037447;28;20055;-57
2023/05/12 05:04:36;;;;;;;7.50;4.72;;;;;;;10.24;100.00;98564.19;5028062;28;20026;-58
2023/05/12 05:07:01;;;;;;;9.63;5.07;;;;;;;10.28;100.00;98568.16;5023698;28;20421;-58
2023/05/12 05:09:27;;;;;;;9.55;5.93;;;;;;;10.35;100.00;98570.00;5012419;28;20029;-57
2023/05/12 05:11:52;;;;;;;9.48;5.82;;;;;;;10.34;100.00;98560.25;5029932;28;20101;-57
2023/05/12 05:14:17;;;;;;;9.50;5.35;;;;;;;10.34;100.00;98571.06;5027415;28;20033;-61
2023/05/12 05:16:44;;;;;;;10.05;5.35;;;;;;;10.43;100.00;98573.38;5022656;28;20026;-62
2023/05/12 05:19:10;;;;;;;8.05;5.40;;;;;;;10.62;100.00;98560.88;5009137;28;20124;-59
2023/05/12 05:21:35;;;;;;;7.30;4.32;;;;;;;10.56;100.00;98559.00;5029818;28;20120;-59
2023/05/12 05:24:00;;;;;;;7.30;3.75;;;;;;;10.57;100.00;98566.06;5026276;28;20029;-60
2023/05/12 05:26:33;;;;;;;11.95;4.65;;;;;;;10.58;100.00;98565.00;5021068;28;20109;-59
2023/05/12 05:29:03;;;;;;;9.10;4.22;;;;;;;10.56;100.00;98553.59;5000165;28;20513;-59
2023/05/12 05:31:28;;;;;;;6.68;3.97;;;;;;;10.63;100.00;98559.81;5038828;28;20034;-59
2023/05/12 05:33:54;;;;;;;7.22;4.75;;;;;;;10.83;100.00;98565.22;5024152;28;20120;-59
2023/05/12 05:36:25;;;;;;;6.30;4.20;;;;;;;11.02;100.00;98559.97;5013159;28;20516;-60
2023/05/12 05:38:50;;;;;;;7.18;4.13;;;;;;;11.14;100.00;98563.69;5019439;28;20859;-59
2023/05/12 05:41:15;;;;;;;8.93;3.80;;;;;;;11.12;100.00;98558.47;5006732;28;20048;-59
2023/05/12 05:43:41;;;;;;;4.95;3.72;;;;;;;11.21;100.00;98558.22;5012129;28;20075;-60
2023/05/12 05:46:06;;;;;;;4.72;3.30;;;;;;;11.41;100.00;98564.41;5014481;28;20064;-59
2023/05/12 05:48:32;;;;;;;6.53;4.18;;;;;;;11.49;100.00;98558.75;5021968;28;20025;-59
2023/05/12 05:50:57;;;;;;;6.05;4.40;;;;;;;11.65;100.00;98548.47;5029854;28;20411;-60
2023/05/12 05:53:23;;;;;;;4.88;3.88;;;;;;;11.74;100.00;98552.59;5023104;28;20020;-59
2023/05/12 05:55:48;;;;;;;7.18;4.15;;;;;;;11.76;100.00;98553.19;5019429;28;20025;-60
2023/05/12 05:58:14;;;;;;;5.32;3.75;;;;;;;11.78;100.00;98553.81;5039393;22;20037;-74
2023/05/12 06:00:41;;;;;;;5.78;4.22;;;;;;;11.71;100.00;98529.47;5023084;28;20026;-74
2023/05/12 06:03:06;;;;;;;5.68;4.13;;;;;;;11.82;100.00;98533.38;5032550;28;20074;-74
2023/05/12 06:05:32;;;;;;;6.30;4.18;;;;;;;11.91;100.00;98537.50;5030841;28;20037;-74
2023/05/12 06:07:57;;;;;;;5.60;3.80;;;;;;;12.18;100.00;98553.59;5017688;28;20030;-74
2023/05/12 06:10:22;;;;;;;7.50;4.60;;;;;;;12.11;100.00;98541.97;5025819;28;20397;-74
2023/05/12 06:12:49;;;;;;;6.60;3.90;;;;;;;12.44;100.00;98549.84;5019217;28;20033;-74
2023/05/12 06:15:14;;;;;;;7.20;4.18;;;;;;;12.27;100.00;98536.00;5029430;28;20436;-74
2023/05/12 06:17:41;;;;;;;6.00;4.05;;;;;;;12.27;100.00;98542.25;5030625;28;20022;-75
2023/05/12 06:20:07;;;;;;;6.50;4.40;;;;;;;12.21;100.00;98542.31;5015300;28;20032;-75
2023/05/12 06:22:33;;;;;;;6.60;3.78;;;;;;;12.38;100.00;98553.44;5027375;28;20021;-75
2023/05/12 06:24:59;;;;;;;6.90;4.20;;;;;;;12.35;100.00;98541.16;5012163;28;20026;-75
2023/05/12 06:27:24;;;;;;;5.45;4.03;;;;;;;12.55;100.00;98557.28;5027338;28;20037;-75
2023/05/12 06:29:50;;;;;;;5.50;3.95;;;;;;;12.67;100.00;98530.22;5031846;28;20103;-75
2023/05/12 06:32:15;;;;;;;6.25;3.95;;;;;;;12.90;100.00;98552.13;5029087;28;20073;-75
2023/05/12 06:34:40;;;;;;;6.13;4.47;;;;;;;12.75;100.00;98554.34;5027841;28;20018;-74
2023/05/12 06:37:06;;;;;;;5.28;4.00;;;;;;;12.36;100.00;98540.09;5021897;28;20030;-74
2023/05/12 06:39:31;;;;;;;6.50;3.80;;;;;;;12.41;100.00;98561.97;5025635;28;20025;-74
2023/05/12 06:41:56;;;;;;;5.88;3.78;;;;;;;12.17;100.00;98557.34;5021598;28;20040;-74
2023/05/12 06:44:22;;;;;;;6.38;4.20;;;;;;;12.35;100.00;98573.69;5031712;28;20037;-74
2023/05/12 06:46:47;;;;;;;10.30;3.97;;;;;;;12.36;100.00;98563.69;5032090;28;20031;-75
2023/05/12 06:49:12;;;;;;;5.65;4.15;;;;;;;12.55;100.00;98553.69;4999084;28;20025;-75
2023/05/12 06:51:37;;;;;;;6.30;3.85;;;;;;;12.94;100.00;98569.63;4995147;28;20026;-74
2023/05/12 06:54:03;;;;;;;7.55;3.95;;;;;;;13.18;100.00;98552.66;5026578;28;20022;-74
2023/05/12 06:56:28;;;;;;;6.88;4.22;;;;;;;13.45;100.00;98545.91;5026023;28;20040;-75
2023/05/12 06:58:59;;;;;;;7.03;3.60;;;;;;;13.77;100.00;98549.22;5031870;28;20036;-75
2023/05/12 07:01:28;;;;;;;10.10;4.22;;;;;;;13.56;100.00;98533.41;5029402;28;20530;-75
2023/05/12 07:03:54;;;;;;;4.15;3.53;;;;;;;13.93;100.00;98533.31;5031817;28;20022;-75
2023/05/12 07:06:20;;;;;;;6.78;4.65;;;;;;;14.46;100.00;98546.09;5031216;28;20055;-75
2023/05/12 07:08:45;;;;;;;4.90;3.63;;;;;;;14.72;100.00;98519.50;5013540;28;20029;-75
2023/05/12 07:11:11;;;;;;;6.20;4.40;;;;;;;14.84;100.00;98526.63;5031961;28;20048;-75
2023/05/12 07:13:37;;;;;;;6.18;3.90;;;;;;;14.54;100.00;98537.63;5032440;28;20073;-75
2023/05/12 07:16:02;;;;;;;5.75;4.35;;;;;;;14.65;100.00;98523.19;5034515;28;20026;-75
2023/05/12 07:18:27;;;;;;;5.18;3.92;;;;;;;15.06;100.00;98526.00;5016419;28;20021;-74
2023/05/12 07:20:53;;;;;;;5.22;3.80;;;;;;;15.10;100.00;98510.84;5012832;28;20037;-75
2023/05/12 07:23:18;;;;;;;5.45;4.05;;;;;;;15.30;100.00;98521.31;5031103;28;20029;-74
2023/05/12 07:25:43;;;;;;;6.50;4.30;;;;;;;15.69;100.00;98514.25;5014371;28;20021;-75
2023/05/12 07:28:10;;;;;;;5.95;4.07;;;;;;;16.11;100.00;98513.06;5014298;28;20141;-75
2023/05/12 07:30:36;;;;;;;7.03;4.22;;;;;;;16.39;100.00;98521.19;5014249;28;20025;-75
2023/05/12 07:33:01;;;;;;;6.55;4.68;;;;;;;16.29;100.00;98512.03;5031874;28;20052;-75
2023/05/12 07:35:27;;;;;;;4.57;3.83;;;;;;;16.06;100.00;98512.97;5031582;28;20029;-75
2023/05/12 07:37:52;;;;;;;7.13;4.70;;;;;;;15.47;100.00;98500.41;5013702;28;20029;-75
2023/05/12 07:40:17;;;;;;;4.90;4.38;;;;;;;15.08;100.00;98507.53;5013630;28;20471;-75
2023/05/12 07:42:43;;;;;;;6.20;4.65;;;;;;;15.00;100.00;98519.63;5030803;28;20022;-74
2023/05/12 07:45:08;;;;;;;6.95;4.72;;;;;;;14.82;100.00;98517.03;5030663;28;20022;-75
2023/05/12 07:47:33;;;;;;;5.63;4.03;;;;;;;15.15;100.00;98524.56;5031834;28;20043;-75
2023/05/12 07:49:59;;;;;;;5.80;4.43;;;;;;;14.86;100.00;98508.16;5031589;28;20061;-75
2023/05/12 07:52:24;;;;;;;9.18;5.13;;;;;;;14.53;100.00;98516.91;5031369;28;20414;-75
2023/05/12 07:54:49;;;;;;;6.03;4.53;;;;;;;14.53;100.00;98526.97;5014031;28;20398;-75
2023/05/12 07:57:15;;;;;;;5.10;4.25;;;;;;;14.48;100.00;98519.47;5035027;28;20021;-75
2023/05/12 07:59:41;;;;;;;6.00;4.60;;;;;;;14.48;100.00;98508.59;5034131;28;20033;-75
2023/05/12 08:02:06;;;;;;;6.57;4.65;;;;;;;14.59;100.00;98521.44;5017729;28;20459;-75
2023/05/12 08:04:32;;;;;;;7.43;4.70;;;;;;;14.41;100.00;98507.91;5034685;28;20482;-75
2023/05/12 08:06:57;;;;;;;5.70;4.70;;;;;;;14.41;100.00;98514.16;5029338;28;20056;-75
2023/05/12 08:09:22;;;;;;;7.20;5.05;;;;;;;14.27;100.00;98517.31;5023051;28;20025;-75
2023/05/12 08:11:48;;;;;;;7.03;5.00;;;;;;;14.20;100.00;98539.19;5017500;28;20112;-75
2023/05/12 08:14:14;;;;;;;6.78;5.55;;;;;;;13.98;100.00;98539.72;5035310;28;20028;-74
2023/05/12 08:16:39;;;;;;;8.25;5.50;;;;;;;13.68;100.00;98536.22;5036179;28;20025;-74
2023/05/12 08:19:05;;;;;;;6.53;5.43;;;;;;;13.64;100.00;98535.81;5035562;28;20044;-74
2023/05/12 08:21:30;;;;;;;6.78;5.43;;;;;;;13.59;100.00;98546.53;5022649;28;20429;-74
2023/05/12 08:23:56;;;;;;;9.93;5.97;;;;;;;13.46;100.00;98542.09;5035109;28;20024;-73
2023/05/12 08:26:21;;;;;;;9.52;5.57;;;;;;;13.27;100.00;98548.63;5018009;28;20033;-74
2023/05/12 08:28:46;;;;;;;6.70;5.38;;;;;;;13.50;100.00;98566.97;5033824;28;20055;-74
2023/05/12 08:31:12;;;;;;;7.60;5.65;;;;;;;13.82;100.00;98562.97;5035049;28;20493;-73
2023/05/12 08:33:37;;;;;;;8.98;6.07;;;;;;;13.96;100.00;98535.56;5016003;28;20037;-74
2023/05/12 08:36:03;;;;;;;9.00;5.05;;;;;;;14.15;100.00;98548.06;5017359;28;20112;-74
2023/05/12 08:38:28;;;;;;;5.70;4.57;;;;;;;14.63;100.00;98549.00;5011745;28;20079;-74
2023/05/12 08:41:11;;;;;;;5.30;4.55;;;;;;;15.19;100.00;98524.91;5033723;28;20026;-74
2023/05/12 08:43:48;;;;;;;4.80;4.03;;;;;;;16.14;100.00;98524.34;5035148;28;20029;-74
2023/05/12 08:46:14;;;;;;;5.43;4.00;;;;;;;17.08;100.00;98537.31;5031202;28;20022;-74
2023/05/12 08:48:40;;;;;;;4.10;2.83;;;;;;;17.60;100.00;98516.91;5026925;28;20026;-74
2023/05/12 08:51:10;;;;;;;3.83;3.20;;;;;;;17.42;100.00;98514.50;5036454;28;20613;-75
2023/05/12 08:53:40;;;;;;;3.58;2.85;;;;;;;18.47;100.00;98515.06;5043159;28;20026;-75
2023/05/12 08:56:09;;;;;;;3.80;2.50;;;;;;;18.38;100.00;98527.56;5040184;28;20044;-75
2023/05/12 08:58:35;;;;;;;5.40;2.40;;;;;;;18.90;100.00;98517.84;5049544;28;20056;-75
2023/05/12 09:01:03;;;;;;;3.35;2.55;;;;;;;19.45;100.00;98506.31;5033541;28;20422;-75
2023/05/12 09:03:30;;;;;;;4.00;3.13;;;;;;;19.41;100.00;98529.91;5021108;28;20087;-75
2023/05/12 09:05:57;;;;;;;3.85;2.65;;;;;;;19.15;100.00;98525.38;5016702;28;20029;-75
2023/05/12 09:08:28;;;;;;;3.67;2.90;;;;;;;18.35;100.00;98512.47;5023767;28;20025;-75
2023/05/12 09:10:55;;;;;;;4.20;2.95;;;;;;;17.94;100.00;98514.00;5016165;28;20075;-75
2023/05/12 09:13:53;;;;;;;4.45;3.10;;;;;;;17.75;100.00;98511.59;5034283;28;20498;-74
2023/05/12 09:16:22;;;;;;;4.43;3.20;;;;;;;18.55;100.00;98519.22;5012726;28;20041;-74
2023/05/12 09:18:54;;;;;;;4.03;2.70;;;;;;;19.53;100.00;98520.63;5033948;28;20030;-74
2023/05/12 09:21:20;;;;;;;3.67;3.03;;;;;;;19.77;100.00;98532.81;5017119;28;20037;-74
2023/05/12 09:24:04;;;;;;;5.18;2.80;;;;;;;19.63;100.00;98529.72;5020310;28;20112;-74
2023/05/12 09:26:31;;;;;;;3.53;2.85;;;;;;;19.63;100.00;98520.66;5032604;28;20025;-74
2023/05/12 09:29:07;;;;;;;3.33;2.40;;;;;;;20.54;100.00;98531.03;5033582;28;20026;-74
2023/05/12 09:31:32;;;;;;;3.53;2.95;;;;;;;20.66;100.00;98532.69;5033772;28;20025;-75
2023/05/12 09:33:57;;;;;;;2.63;2.30;;;;;;;21.27;100.00;98499.53;5032076;28;20026;-74
2023/05/12 09:36:24;;;;;;;3.55;2.85;;;;;;;20.45;100.00;98518.09;5024201;28;20442;-74
2023/05/12 09:39:02;;;;;;;3.15;2.40;;;;;;;20.16;100.00;98529.59;5027080;28;20506;-75
2023/05/12 09:41:27;;;;;;;3.65;2.25;;;;;;;19.72;100.00;98516.31;5000127;28;20034;-74
2023/05/12 09:43:52;;;;;;;3.40;2.70;;;;;;;18.73;100.00;98501.53;5013965;28;20115;-74
2023/05/12 09:46:17;;;;;;;4.65;3.00;;;;;;;18.37;100.00;98528.66;5009583;28;20025;-74
2023/05/12 09:48:46;;;;;;;4.97;3.47;;;;;;;18.33;100.00;98524.78;5017646;28;20044;-74
2023/05/12 09:51:16;;;;;;;10.85;4.07;;;;;;;17.85;100.00;98508.19;5030514;28;20064;-74
2023/05/12 09:53:43;;;;;;;4.15;3.72;;;;;;;18.29;100.00;98502.56;5033403;28;20026;-74
2023/05/12 09:56:09;;;;;;;7.18;4.15;;;;;;;18.95;100.00;98520.63;5033206;28;20056;-74
2023/05/12 09:58:35;;;;;;;4.88;3.78;;;;;;;19.21;100.00;98525.16;5032916;28;20025;-74
2023/05/12 10:01:01;;;;;;;6.15;4.20;;;;;;;19.32;100.00;98498.59;5033153;28;20414;-74
2023/05/12 10:03:29;;;;;;;4.32;3.90;;;;;;;19.16;100.00;98511.41;5010142;28;20028;-74
2023/05/12 10:06:02;;;;;;;5.00;3.65;;;;;;;19.34;100.00;98518.38;5031743;28;20029;-74
2023/05/12 10:08:41;;;;;;;4.45;3.53;;;;;;;19.15;100.00;98515.25;5032776;28;20060;-74
2023/05/12 10:11:07;;;;;;;5.28;3.80;;;;;;;19.03;100.00;98520.13;5033444;28;20025;-75
2023/05/12 10:13:33;;;;;;;6.68;4.10;;;;;;;18.61;100.00;98491.59;5033142;28;20033;-74
2023/05/12 10:15:58;;;;;;;4.10;3.70;;;;;;;19.13;100.00;98516.63;5033189;28;20021;-75
2023/05/12 10:18:24;;;;;;;5.38;4.03;;;;;;;18.80;100.00;98519.41;5014665;28;20033;-74
2023/05/12 10:20:51;;;;;;;4.25;3.65;;;;;;;18.65;100.00;98526.69;5030973;28;20064;-75
2023/05/12 10:23:17;;;;;;;4.80;3.65;;;;;;;18.21;100.00;98507.69;5033347;28;20463;-74
2023/05/12 10:25:43;;;;;;;4.05;3.45;;;;;;;17.50;100.00;98519.50;5015439;28;20396;-75
2023/05/12 10:28:09;;;;;;;3.42;2.85;;;;;;;17.24;100.00;98527.41;5033195;28;20021;-74
2023/05/12 10:30:39;;;;;;;4.93;3.00;;;;;;;16.81;100.00;98517.25;5030755;28;20022;-75
2023/05/12 10:33:07;;;;;;;4.53;2.30;;;;;;;16.86;100.00;98515.41;5033037;28;20025;-74
2023/05/12 10:35:34;;;;;;;4.03;2.50;;;;;;;16.59;100.00;98528.09;5011323;28;20108;-75
2023/05/12 10:38:10;;;;;;;2.80;2.50;;;;;;;16.26;100.00;98540.63;5028462;28;20497;-75
2023/05/12 10:40:36;;;;;;;6.13;3.38;;;;;;;16.17;100.00;98520.28;5032835;28;20064;-75
2023/05/12 10:43:02;;;;;;;4.15;3.08;;;;;;;16.31;100.00;98531.72;5011380;28;20475;-75
2023/05/12 10:45:28;;;;;;;4.47;2.95;;;;;;;16.40;100.00;98541.13;5017599;28;20243;-75
2023/05/12 10:48:05;;;;;;;7.60;3.05;;;;;;;16.59;100.00;98530.81;5012007;28;20040;-74
2023/05/12 10:50:31;;;;;;;5.38;3.25;;;;;;;16.91;100.00;98532.97;5024947;28;20021;-75
2023/05/12 10:52:56;;;;;;;9.75;3.17;;;;;;;16.86;100.00;98522.78;5031666;28;20501;-75
2023/05/12 10:55:33;;;;;;;3.33;2.65;;;;;;;16.83;100.00;98518.63;5014871;28;20112;-75
2023/05/12 10:58:09;;;;;;;6.68;3.25;;;;;;;16.73;100.00;98518.47;5029372;28;20041;-75
2023/05/12 11:00:48;;;;;;;3.45;2.50;;;;;;;16.78;100.00;98532.22;5026084;28;20496;-75
2023/05/12 11:03:15;;;;;;;;;;;;;;;17.12;100.00;98526.69;5015175;28;20479;-72
2023/05/12 11:05:42;;;;;;;5.43;3.20;;;;;;;16.91;100.00;98533.78;5028301;28;19912;-72
2023/05/12 11:08:07;;;;;;;4.53;3.25;;;;;;;16.66;100.00;98523.25;5020727;28;20024;-73
2023/05/12 11:10:33;;;;;;;4.90;3.40;;;;;;;16.74;100.00;98528.31;5024130;28;20029;-73
2023/05/12 11:12:59;;;;;;;5.88;3.78;;;;;;;16.48;100.00;98529.84;5028897;28;20029;-75
2023/05/12 11:15:24;;;;;;;4.60;3.30;;;;;;;16.70;100.00;98521.69;5029434;28;20044;-74
2023/05/12 11:17:49;;;;;;;7.70;3.75;;;;;;;16.74;100.00;98524.75;5027806;28;20033;-75
2023/05/12 11:20:25;;;;;;;6.30;3.90;;;;;;;16.55;100.00;98524.19;5032224;28;20025;-73
2023/05/12 11:22:51;;;;;;;4.90;3.58;;;;;;;16.94;100.00;98549.66;5025968;28;20121;-74
2023/05/12 11:25:16;;;;;;;5.57;3.40;;;;;;;16.90;100.00;98542.22;5029998;28;20115;-72